Česky Dansk Deutsch English Español Suomi Français Magyar Italiano Nederlands norsk Polski Português svenska Türkçe

 

Het Weer

Tarvisio (Italia)

06:55, 23 augustus 2016 (GMT)

NWNNE
WE
SWSSE
Home            
Tarvisio Klagenfurt-Flughafen Udine / Campoformido Udine / Rivolto Pula Aerodrome Ljubljana / Brnik Ronchi Dei Legionari Aviano Usaf Aviano Trieste Zell Am See Dobbiaco Portoroz Portoroz / Secovlje Zeltweg Aigen Im Ennstal Passo Rolle Treviso / S. Angelo Treviso / Istrana Venezia / Tessera Salzburg-Flughafen Graz-Thalerhof-Flughafen Maribor / Slivnica

Om een weerknop op uw website of weblog te plaatsen, copieer onderstaande code en plak die in uw pagina. In het eerste vakje staat HTML-code, in het tweede vakje UBB-code.


Add to Google

Details

Generelle sikten:Større enn 10000 m, 10 km, 32800 ft, 6.2 miles
Clouds:CAVOC
Temperaturen:10°C, 50°F
Duggpunkt:8°C, 46°F
Lufttrykket:1028 hPa, 771.1 mmHg, 30.36 inHg, 1.015 atm
Relative fuktigheten:87.4 %
METAR:LIVO 230655Z 00000KT CAVOK 10/08 Q1028 RMK SKC VIS MIN 9999

Snelkoppelingen

Actuele weersinformatie van de hele wereld. Voeg locaties toe met het plus (+) symbool. Deze snelkoppelingen kunnen worden toegevoegd aan Google.

Lid van de Technetium groep

website free tracking
StatCounter NetStat W3C Validator

17-08-2022 07:25:14
astro.technetium.be money.technetium.be phote.technetium.be tafeltennistafel.technetium.be www.ligfiets.net